Latest METARs, TAFs and NOTAMs for LIMF


---------------------------------------------------------------------------
	(OBSERVATIONS)
LIMF 210250Z 28004KT CAVOK 22/16 Q1017=
LIMF 210220Z 27004KT CAVOK 23/16 Q1017=
LIMF 210150Z NIL=
LIMF 210120Z 23005KT CAVOK 22/16 Q1017=
LIMF 210050Z NIL=
LIMF 210020Z VRB02KT CAVOK 22/17 Q1017=
---------------------------------------------------------------------------
	(FC)
Sorry, FC For LIMF Not Found
---------------------------------------------------------------------------
	(TERMINAL AREA FORECAST)
LIMF 202300Z 2100/2124 VRB05KT 9999 SCT050=
---------------------------------------------------------------------------
	(NOTAMS)


LIMF A4027/18 REF AIP AD 2 LIMF 1-8 ITEM 19 'RADIO NAVIGATION
    AND LANDING AIDS' COLUMN 7 'DESIGNATED OPERATIONAL COVERAGE
    LIMITATIONS' BIELLA VOR/DME 'BLA' FREQ 116.10MHZ CH 108X
    ADD AS FLW: RDL 312DEG NOT USABLE. 07 JUN 14:18 2018 UNTIL
    PERM. CREATED: 07 JUN 14:18 2018

LIMF A4614/18 AIP SUP S4/18 IN FORCE FM 24 MAY TO 31 DEC 2018
    EST TORINO/CASELLE AIRPORT: EXPANSION WORKS OF RESA RWY18.
    CURRENT STATUS OF WORKING PHASES: -PHASE 1 ACTIVATED RMK:
    RADIOALTIMETER AREA RWY36 NOT USABLE AT A DISTANCE GREATER
    THAN 530M FM THR36 DUE TO PRESENCE OF MEN AND EQPT IN A WORKING
    AREA LOCATED BTN 530M AND 900M FM THR36 AND 150M WIDE (75M
    EACH SIDE OF RCL), MODIFY SUP S4/18 PAGES 3/13, 5/13, 7/13
    AND 'AD OBST CHART ICAO TYPE B-NR MF 3/7 PHASE 1' ACCORDINGLY.
    -PHASE 2: NOT ACTIVATED YET. 25 JUN 14:23 2018 UNTIL 22 SEP
    23:59 2018 ESTIMATED. CREATED: 25 JUN 14:24 2018

LIMF A4943/18 REF AIP AD 2 LIMF 1-3 ITEM 7 'SEASONAL AVAILABILITY'
    BOX 3 'REMARKS' POINT 4 CHANGE TO READ AS FOLLOW: WHENEVER
    WATER IS PRESENT ON THE RWY OR SLUSH/WET SNOW/DRY SNOW/COMPACTED
    SNOW/ICE/FROST COVERS 25 PER CENT OR LESS OF THE RWY, THE
    AERODROME OPERATOR WILL REPORT FOR EACH THIRD OF THE RWY
    TYPE, EXTENT AND DEPTH OF CONTAMINANT (EXPRESSED IN MILLIMETERS)
    ONLY. WHEN WATER FILM MORE THAN 3 MILLIMETERS/SLUSH/WET SNOW/DRY
    SNOW/COMPACTED SNOW/ICE/FROST COVERS MORE THAN 25 PER CENT
    OF THE RWY, THE AERODROME OPERATOR WILL REPORT THE RWY SURFACE
    CONDITIONS FOR EACH THIRD OF THE RWY INDICATING TYPE, EXTENT,
    DEPTH OF CONTAMINANT (EXPRESSED IN MILLIMETERS) AND ESTIMATED
    SURFACE FRICTION. ACCORDING TO ICAO RECOMMENDATIONS, RWY
    FRICTION MEASUREMENT WILL NOT BE REPORTED. PILOTS ARE ASKED
    TO REPORT BRAKING ACTION USING ICAO CATEGORIES (GOOD, GOOD
    TO MEDIUM, MEDIUM, MEDIUM TO POOR, POOR) AND STATE AIRCRAFT
    TYPE. 06 JUL 09:40 2018 UNTIL PERM. CREATED: 06 JUL 09:40
    2018

LIMF A5694/18 REF AOC TYPE B NR MF 3/7 NEW OBSTACLE POLE PENETRATING
    INNER HORIZONTAL SURFACE PSN COORD (WGS84): 451254.7N 0073804.8E
    ELEV AGL 26.0M/85.3FT ELEV AMSL 339.0M/1112.2FT ICAO SIGNAL
    PROVIDED. 07 AUG 00:00 2018 UNTIL PERM. CREATED: 01 AUG 13:01
    2018

LIMF A5695/18 TAXIWAY 'C' CENTRE LINE LIGHTS NOT AVBL DUE TO
    WIP RMK: TAXI OPS NOT ALLOWED DURING LOW VISIBILITY PROCEDURES
    REF AIP AD 2 LIMF 2-1. 01 AUG 14:00 2018 UNTIL 30 SEP 12:00
    2018. CREATED: 01 AUG 13:28 2018

LIMF A5716/18 APPROACH LIGHTING SYSTEM RWY36 DOWNGRADED TO CAT
    I REF AIP AD 2 LIMF 1-5. 02 AUG 07:19 2018 UNTIL 30 SEP 12:00
    2018 ESTIMATED. CREATED: 02 AUG 07:19 2018

LIMF M3345/18 REF FLIP 'CENTRAL AND NORTHERN ITALY' AD LIMF 1-1
    'LANDING CHART' AD LIMF 1-2 'SID TOP 5C RWY36' AD LIMF 1-3
    'SID TOP 5D RWY36' CHG ATIS FREQ BOX TO READ: 120.475 INSTEAD
    OF 122.850 OTHER INFORMATION UNCHANGED. 05 JUL 14:48 2018
    UNTIL PERM. CREATED: 05 JUL 14:48 2018

---------------------------------------------------------------------------